< < Back
Terminal Aerodrome Forecast


Current Version              Previous Versions:   1  2  3  4  5  6  7  8  9  

Terminal Aerodrome Forecast

495
FTUS44 KMOB 281120
TAFPNS
TAF
KPNS 281120Z 2812/2912 07004KT P6SM BKN150
     FM281500 17009KT P6SM VCSH SCT050 BKN250
     FM290300 21004KT P6SM FEW250=

Latest METAR

324
SAUS70 KWBC 281540 RRC
MTRPNS
METAR KPNS 281553Z 13011KT 10SM SCT025 28/19 A3004 RMK AO2 SLP174
T02830194


USA.gov is the U.S. government's official web portal to all federal, state and local government web resources and services.